地図

経路データ

SID SEASON NUMBER BASIN SUBBASIN NAME ISO_TIME NATURE LAT LON WMO_WIND WMO_PRES WMO_AGENCY TRACK_TYPE DIST2LAND LANDFALL IFLAG USA_AGENCY USA_ATCF_ID USA_LAT USA_LON USA_RECORD USA_STATUS USA_WIND USA_PRES USA_SSHS USA_R34_NE USA_R34_SE USA_R34_SW USA_R34_NW USA_R50_NE USA_R50_SE USA_R50_SW USA_R50_NW USA_R64_NE USA_R64_SE USA_R64_SW USA_R64_NW USA_POCI USA_ROCI USA_RMW USA_EYE TOKYO_LAT TOKYO_LON TOKYO_GRADE TOKYO_WIND TOKYO_PRES TOKYO_R50_DIR TOKYO_R50_LONG TOKYO_R50_SHORT TOKYO_R30_DIR TOKYO_R30_LONG TOKYO_R30_SHORT TOKYO_LAND CMA_LAT CMA_LON CMA_CAT CMA_WIND CMA_PRES HKO_LAT HKO_LON HKO_CAT HKO_WIND HKO_PRES NEWDELHI_LAT NEWDELHI_LON NEWDELHI_GRADE NEWDELHI_WIND NEWDELHI_PRES NEWDELHI_CI NEWDELHI_DP NEWDELHI_POCI REUNION_LAT REUNION_LON REUNION_TYPE REUNION_WIND REUNION_PRES REUNION_TNUM REUNION_CI REUNION_RMW REUNION_R34_NE REUNION_R34_SE REUNION_R34_SW REUNION_R34_NW REUNION_R50_NE REUNION_R50_SE REUNION_R50_SW REUNION_R50_NW REUNION_R64_NE REUNION_R64_SE REUNION_R64_SW REUNION_R64_NW BOM_LAT BOM_LON BOM_TYPE BOM_WIND BOM_PRES BOM_TNUM BOM_CI BOM_RMW BOM_R34_NE BOM_R34_SE BOM_R34_SW BOM_R34_NW BOM_R50_NE BOM_R50_SE BOM_R50_SW BOM_R50_NW BOM_R64_NE BOM_R64_SE BOM_R64_SW BOM_R64_NW BOM_ROCI BOM_POCI BOM_EYE BOM_POS_METHOD BOM_PRES_METHOD NADI_LAT NADI_LON NADI_CAT NADI_WIND NADI_PRES WELLINGTON_LAT WELLINGTON_LON WELLINGTON_WIND WELLINGTON_PRES DS824_LAT DS824_LON DS824_STAGE DS824_WIND DS824_PRES TD9636_LAT TD9636_LON TD9636_STAGE TD9636_WIND TD9636_PRES TD9635_LAT TD9635_LON TD9635_WIND TD9635_PRES TD9635_ROCI NEUMANN_LAT NEUMANN_LON NEUMANN_CLASS NEUMANN_WIND NEUMANN_PRES MLC_LAT MLC_LON MLC_CLASS MLC_WIND MLC_PRES USA_GUST BOM_GUST BOM_GUST_PER REUNION_GUST REUNION_GUST_PER USA_SEAHGT USA_SEARAD_NE USA_SEARAD_SE USA_SEARAD_SW USA_SEARAD_NW STORM_SPEED STORM_DIR
1956316S12157 1957 108 SP EA NOT_NAMED 1956-11-11 05:00:00 NR -12.0000 156.500 main 406 406 __________O___ -1 -12.0000 156.500 1 15 5 162
1956316S12157 1957 108 SP EA NOT_NAMED 1956-11-11 06:00:00 TS -12.0753 156.515 main 417 417 O________OP___ jtwc_sh SH051957 -12.1000 156.500 15 -1 -12.1000 156.500 TC 15 -12.0506 156.531 1 4 157
1956316S12157 1957 108 SP EA NOT_NAMED 1956-11-11 09:00:00 TS -12.2253 156.602 main 424 424 P________PP___ SH051957 -12.2400 156.583 15 -1 -12.2400 156.583 TC 15 -12.2056 156.627 1 3 149
1956316S12157 1957 108 SP EA NOT_NAMED 1956-11-11 11:00:00 TS -12.3017 156.657 1006 bom main 431 431 P_____O__PP___ SH051957 -12.3432 156.655 15 -1 -12.0000 156.500 1006 -12.3432 156.655 TC 15 -12.3149 156.700 1 3 146
1956316S12157 1957 108 SP EA NOT_NAMED 1956-11-11 12:00:00 TS -12.3336 156.686 main 431 431 O_____P__OP___ jtwc_sh SH051957 -12.4000 156.700 15 -1 -12.1069 156.566 1005 -12.4000 156.700 TC 15 -12.3724 156.741 1 5 141
1956316S12157 1957 108 SP EA NOT_NAMED 1956-11-11 15:00:00 TS -12.5377 156.850 main 445 445 P_____P__PP___ SH051957 -12.5925 156.878 15 -1 -12.4283 156.766 1004 -12.5925 156.878 TC 15 -12.5595 156.883 1 6 142
1956316S12157 1957 108 SP EA NOT_NAMED 1956-11-11 17:00:00 TS -12.6951 156.980 main 445 445 P_____P__PO___ SH051957 -12.7307 157.022 15 -1 -12.6436 156.907 1004 -12.7307 157.022 TC 15 -12.7000 157.000 1 6 141
1956316S12157 1957 108 SP EA NOT_NAMED 1956-11-11 18:00:00 TS -12.7800 157.051 main 446 446 O_____P__OP___ jtwc_sh SH051957 -12.8000 157.100 15 -1 -12.7518 156.981 1003 -12.8000 157.100 TC 15 -12.7756 157.066 1 7 139
1956316S12157 1957 108 SP EA NOT_NAMED 1956-11-11 21:00:00 TS -13.0403 157.287 main 450 450 P_____P__PP___ SH051957 -13.0075 157.343 15 -1 -13.0790 157.221 1002 -13.0075 157.343 TC 15 -13.0132 157.293 1 7 137
1956316S12157 1957 108 SP EA NOT_NAMED 1956-11-11 23:00:00 TS -13.2092 157.460 1002 bom main 455 455 P_____O__PP___ SH051957 -13.1390 157.514 15 -1 -13.3000 157.400 1002 -13.1390 157.514 TC 15 -13.1676 157.462 1 7 135
1956316S12157 1957 108 SP EA NOT_NAMED 1956-11-12 00:00:00 TS -13.2902 157.549 main 465 459 O_____P__OP___ jtwc_sh SH051957 -13.2000 157.600 15 -1 -13.4112 157.496 1002 -13.2000 157.600 TC 15 -13.2398 157.550 1 7 131
1956316S12157 1957 108 SP EA NOT_NAMED 1956-11-12 03:00:00 TS -13.5202 157.823 main 468 463 P_____P__PP___ SH051957 -13.3875 157.850 15 -1 -13.7267 157.799 1002 -13.3875 157.850 TC 15 -13.4212 157.820 1 7 128
1956316S12157 1957 108 SP EA NOT_NAMED 1956-11-12 05:00:00 TS -13.6371 158.007 1002 bom main 468 468 P_____O__PO___ SH051957 -13.4754 158.017 15 -1 -13.9000 158.000 1002 -13.4754 158.017 TC 15 -13.5000 158.000 1 15 6 121
1956316S12157 1957 108 SP EA NOT_NAMED 1956-11-12 06:00:00 TS -13.6764 158.095 main 474 466 O_____P__OP___ jtwc_sh SH051957 -13.5000 158.100 15 -1 -13.9637 158.089 -13.5000 158.100 TC 15 -13.5181 158.083 1 5 104
1956316S12157 1957 108 SP EA NOT_NAMED 1956-11-12 09:00:00 TS -13.7166 158.345 main 466 455 P_____P__PP___ SH051957 -13.4800 158.350 15 -1 -14.0788 158.335 -13.4800 158.350 TC 15 -13.5177 158.334 1 5 91
1956316S12157 1957 108 SP EA NOT_NAMED 1956-11-12 12:00:00 TS -13.6859 158.585 main 455 439 O_____P__OP___ jtwc_sh SH051957 -13.4000 158.600 15 -1 -14.1030 158.558 -13.4000 158.600 TC 15 -13.4574 158.584 1 5 81
1956316S12157 1957 108 SP EA NOT_NAMED 1956-11-12 15:00:00 TS -13.6429 158.821 main 439 432 P_____P__PP___ SH051957 -13.3650 158.850 15 -1 -14.0665 158.772 -13.3650 158.850 TC 15 -13.3652 158.833 1 5 77
1956316S12157 1957 108 SP EA NOT_NAMED 1956-11-12 17:00:00 TS -13.6002 158.979 main 432 432 P_____P__PO___ SH051957 -13.3281 159.017 15 -1 -14.0232 158.916 -13.3281 159.017 TC 15 -13.3000 159.000 1 5 72
1956316S12157 1957 108 SP EA NOT_NAMED 1956-11-12 18:00:00 TS -13.5711 159.055 main 425 403 O_____P__OP___ jtwc_sh SH051957 -13.3000 159.100 15 -1 -13.9992 158.990 -13.3000 159.100 TC 15 -13.2536 159.068 1 5 63
1956316S12157 1957 108 SP EA NOT_NAMED 1956-11-12 21:00:00 TS -13.4486 159.287 main 394 388 P_____P__PP___ SH051957 -13.1350 159.350 15 -1 -13.9311 159.226 -13.1350 159.350 TC 15 -13.0985 159.264 1 5 63
1956316S12157 1957 108 SP EA NOT_NAMED 1956-11-12 23:00:00 TS -13.3765 159.450 1002 bom main 388 381 P_____O__PP___ SH051957 -13.0324 159.517 15 -1 -13.9000 159.400 1002 4 -13.0324 159.517 TC 15 -13.0066 159.404 1 5 68
1956316S12157 1957 108 SP EA NOT_NAMED 1956-11-13 00:00:00 TS -13.3534 159.535 main 381 354 O_____P__OP___ jtwc_sh SH051957 -13.0000 159.600 15 -1 -13.8956 159.494 1002 -13.0000 159.600 TC 15 -12.9714 159.482 1 5 82
1956316S12157 1957 108 SP EA NOT_NAMED 1956-11-13 03:00:00 TS -13.3297 159.790 main 354 348 P_____P__PP___ SH051957 -12.9673 159.805 15 -1 -13.8887 159.792 1002 -12.9673 159.805 TC 15 -12.9379 159.760 1 5 92
1956316S12157 1957 108 SP EA NOT_NAMED 1956-11-13 05:00:00 TS -13.3713 159.992 1002 bom main 350 344 P_____O__PO___ SH051957 -13.0327 159.983 15 -1 -13.9000 160.000 1002 -13.0327 159.983 TC 15 -13.0000 160.000 1 15 6 106
1956316S12157 1957 108 SP MM NOT_NAMED 1956-11-13 06:00:00 TS -13.4178 160.110 main 344 338 O_____P__OP___ jtwc_sh SH051957 -13.1000 160.100 15 -1 -13.9153 160.102 -13.1000 160.100 TC 15 -13.0736 160.149 1 9 117
1956316S12157 1957 108 SP MM NOT_NAMED 1956-11-13 09:00:00 TS -13.6481 160.538 main 343 343 P_____P__PP___ SH051957 -13.4400 160.590 15 -1 -13.9937 160.412 -13.4400 160.590 TC 15 -13.4038 160.668 1 11 121
1956316S12157 1957 108 SP MM NOT_NAMED 1956-11-13 12:00:00 TS -13.9676 161.036 main 368 364 O_____P__OP___ jtwc_sh SH051957 -13.9000 161.200 15 -1 -14.1121 160.734 -13.9000 161.200 TC 15 -13.8521 161.263 1 12 123
1956316S12157 1957 108 SP MM NOT_NAMED 1956-11-13 15:00:00 TS -14.3021 161.562 main 392 392 P_____P__PP___ SH051957 -14.3351 161.850 15 -1 -14.2588 161.073 -14.3351 161.850 TC 15 -14.3588 161.888 1 12 124
1956316S12157 1957 108 SP MM NOT_NAMED 1956-11-13 17:00:00 TS -14.5376 161.918 main 414 414 P_____P__PO___ SH051957 -14.6417 162.290 15 -1 -14.3666 161.311 -14.6417 162.290 TC 15 -14.7000 162.300 1 12 125
1956316S12157 1957 108 SP MM NOT_NAMED 1956-11-13 18:00:00 TS -14.6546 162.087 main 436 419 O_____P__OP___ jtwc_sh SH051957 -14.8000 162.500 15 -1 -14.4222 161.435 -14.8000 162.500 TC 15 -14.8511 162.476 1 13 127
1956316S12157 1957 108 SP MM NOT_NAMED 1956-11-13 21:00:00 TS -15.0451 162.606 main 419 389 P_____P__PP___ SH051957 -15.3072 163.065 17 -1 -14.5907 161.823 -15.3072 163.065 TC 17 -15.3123 162.993 1 13 128
1956316S12157 1957 108 SP MM NOT_NAMED 1956-11-13 23:00:00 TS -15.3267 162.971 1002 bom main 380 362 P_____O__PP___ SH051957 -15.6420 163.422 19 -1 -14.7000 162.100 1002 -15.6420 163.422 TC 19 -15.6207 163.341 1 16 128
1956316S12157 1957 108 SP MM NOT_NAMED 1956-11-14 00:00:00 TS -15.5345 163.244 main 362 296 O_____P__OP___ jtwc_sh SH051957 -15.8000 163.600 20 -1 -14.7526 162.244 1002 -15.8000 163.600 TC 20 -15.7734 163.520 1 17 128
1956316S12157 1957 108 SP MM NOT_NAMED 1956-11-14 03:00:00 TS -16.0328 163.902 main 296 265 P_____P__PP___ SH051957 -16.2220 164.113 20 -1 -14.9031 162.693 1002 -16.2220 164.113 TC 20 -16.2191 164.085 1 17 128
1956316S12157 1957 108 SP MM NOT_NAMED 1956-11-14 05:00:00 TS -16.3707 164.377 1002 bom main 260 243 P_____O__PO___ SH051957 -16.4773 164.488 20 -1 -15.0000 163.000 1002 -16.4773 164.488 TC 20 -16.5000 164.500 1 20 19 127
1956316S12157 1957 108 SP MM NOT_NAMED 1956-11-14 06:00:00 TS -16.6093 164.712 main 243 200 O________OP___ jtwc_sh SH051957 -16.6000 164.700 20 -1 -16.6000 164.700 TC 20 -16.6279 164.737 1 22 18 119
1956316S12157 1957 108 SP MM NOT_NAMED 1956-11-14 09:00:00 TS -16.9679 165.480 main 198 147 P________PP___ SH051957 -16.9577 165.470 27 -1 -16.9577 165.470 TC 27 -16.9885 165.501 1 28 17 115
1956316S12157 1957 108 SP MM NOT_NAMED 1956-11-14 12:00:00 TS -17.3095 166.302 main 147 123 O________OP___ jtwc_sh SH051957 -17.3000 166.300 35 0 -17.3000 166.300 TC 35 -17.3285 166.305 1 34 17 114
1956316S12157 1957 108 SP MM NOT_NAMED 1956-11-14 15:00:00 TS -17.6503 167.082 main 130 124 P________PP___ SH051957 -17.6423 167.073 40 0 -17.6423 167.073 TC 40 -17.6663 167.100 1 40 16 115
1956316S12157 1957 108 SP MM NOT_NAMED 1956-11-14 17:00:00 TS -17.8850 167.576 main 145 145 P________PO___ SH051957 -17.8775 167.564 43 0 -17.8775 167.564 TC 43 -17.9000 167.600 2 45 16 117
1956316S12157 1957 108 SP MM NOT_NAMED 1956-11-14 18:00:00 TS -18.0022 167.811 main 156 156 O________OP___ jtwc_sh SH051957 -18.0000 167.800 45 0 -18.0000 167.800 TC 45 -18.0066 167.832 2 42 15 119
1956316S12157 1957 108 SP MM NOT_NAMED 1956-11-14 21:00:00 TS -18.3664 168.484 main 214 214 P________PP___ SH051957 -18.3848 168.480 37 0 -18.3848 168.480 TC 37 -18.3297 168.490 2 36 14 122
1956316S12157 1957 108 SP MM NOT_NAMED 1956-11-15 00:00:00 TS -18.7639 169.099 main 282 282 O________OP___ jtwc_sh SH051957 -18.8000 169.100 30 -1 -18.8000 169.100 TC 30 -18.6918 169.097 2 30 14 125
1956316S12157 1957 108 SP MM NOT_NAMED 1956-11-15 03:00:00 TS -19.1721 169.682 main 353 353 P________PP___ SH051957 -19.1899 169.695 25 -1 -19.1899 169.695 TC 25 -19.1364 169.654 2 24 14 130
1956316S12157 1957 108 SP MM NOT_NAMED 1956-11-15 05:00:00 TS -19.5049 170.030 main 399 399 P________PO___ SH051957 -19.5074 170.045 21 -1 -19.5074 170.045 TC 21 -19.5000 170.000 1 20 14 139
1956316S12157 1957 108 SP MM NOT_NAMED 1956-11-15 06:00:00 TS -19.7078 170.184 main 429 414 O________OP___ jtwc_sh SH051957 -19.7000 170.200 20 -1 -19.7000 170.200 TC 20 -19.7233 170.153 1 20 16 152
1956316S12157 1957 108 SP MM NOT_NAMED 1956-11-15 09:00:00 TS -20.4602 170.558 main 418 409 P________PP___ SH051957 -20.4470 170.551 22 -1 -20.4470 170.551 TC 22 -20.4865 170.573 1 23 18 157
1956316S12157 1957 108 SP MM NOT_NAMED 1956-11-15 12:00:00 TS -21.3098 170.927 main 415 412 O________OP___ jtwc_sh SH051957 -21.3000 170.900 25 -1 -21.3000 170.900 TC 25 -21.3294 170.981 1 25 19 155
1956316S12157 1957 108 SP MM NOT_NAMED 1956-11-15 15:00:00 TS -22.1495 171.401 main 453 452 P________PP___ SH051957 -22.1371 171.383 27 -1 -22.1371 171.383 TC 27 -22.1742 171.438 1 28 19 150
1956316S12157 1957 108 SP MM NOT_NAMED 1956-11-15 17:00:00 TS -22.6744 171.785 main 494 494 P________PO___ SH051957 -22.6616 171.778 29 -1 -22.6616 171.778 TC 29 -22.7000 171.800 1 30 19 143
1956316S12157 1957 108 SP MM NOT_NAMED 1956-11-15 18:00:00 TS -22.9005 172.008 main 517 517 O________OP___ jtwc_sh SH051957 -22.9000 172.000 30 -1 -22.9000 172.000 TC 30 -22.9014 172.024 1 30 18 131
1956316S12157 1957 108 SP MM NOT_NAMED 1956-11-15 21:00:00 TS -23.4640 172.762 main 608 608 P________PP___ SH051957 -23.4725 172.756 30 -1 -23.4725 172.756 TC 30 -23.4470 172.772 1 30 18 127
1956316S12157 1957 108 SP MM NOT_NAMED 1956-11-16 00:00:00 TS -23.9892 173.599 main 700 700 O________OP___ jtwc_sh SH051957 -24.0000 173.600 30 -1 -24.0000 173.600 TC 30 -23.9675 173.597 1 30 19 125
1956316S12157 1957 108 SP MM NOT_NAMED 1956-11-16 03:00:00 TS -24.5646 174.455 main 782 782 P________PP___ SH051957 -24.5749 174.459 30 -1 -24.5749 174.459 TC 30 -24.5440 174.446 1 30 20 129
1956316S12157 1957 108 SP MM NOT_NAMED 1956-11-16 05:00:00 TS -25.0216 175.018 main 806 806 P________PO___ SH051957 -25.0324 175.026 30 -1 -25.0324 175.026 TC 30 -25.0000 175.000 1 30 21 134
1956316S12157 1957 108 SP MM NOT_NAMED 1956-11-16 06:00:00 TS -25.3004 175.299 main 827 827 O________OP___ jtwc_sh SH051957 -25.3000 175.300 30 -1 -25.3000 175.300 TC 30 -25.3013 175.296 1 30 24 142
1956316S12157 1957 108 SP MM NOT_NAMED 1956-11-16 09:00:00 TS -26.3112 176.113 main 913 880 P________PP___ SH051957 -26.3120 176.072 30 -1 -26.3120 176.072 TC 30 -26.3097 176.193 1 30 25 146
1956316S12157 1957 108 SP MM NOT_NAMED 1956-11-16 12:00:00 TS -27.3943 176.876 main 874 817 O________OP___ jtwc_sh SH051957 -27.4000 176.800 30 -1 -27.4000 176.800 TC 30 -27.3828 177.027 1 30 25 146
1956316S12157 1957 108 SP MM NOT_NAMED 1956-11-16 15:00:00 TS -28.3901 177.664 main 812 782 P________PP___ SH051957 -28.3830 177.648 30 -1 -28.3830 177.648 TC 30 -28.4043 177.697 1 30 23 147
1956316S12157 1957 108 SP MM NOT_NAMED 1956-11-16 17:00:00 TS -28.9692 178.051 main 779 761 P________PO___ SH051957 -28.9538 178.077 30 -1 -28.9538 178.077 TC 30 -29.0000 178.000 1 30 19 153
1956316S12157 1957 108 SP MM NOT_NAMED 1956-11-16 18:00:00 TS -29.2128 178.148 main 761 699 O________OP___ jtwc_sh SH051957 -29.2000 178.200 30 -1 -29.2000 178.200 TC 30 -29.2384 178.044 1 30 12 181
1956316S12157 1957 108 SP MM NOT_NAMED 1956-11-16 21:00:00 TS -29.7942 178.026 main 699 646 P________PP___ SH051957 -29.7673 178.058 32 -1 -29.7673 178.058 TC 32 -29.8481 177.963 1 33 11 200
1956316S12157 1957 108 SP MM NOT_NAMED 1956-11-17 00:00:00 TS -30.2450 177.706 main 646 594 O________OP___ jtwc_sh SH051957 -30.2000 177.700 35 0 -30.2000 177.700 TC 35 -30.3351 177.717 1 35 10 204
1956316S12157 1957 108 SP MM NOT_NAMED 1956-11-17 03:00:00 TS -30.6866 177.558 main 594 575 P________PP___ SH051957 -30.6570 177.581 37 0 -30.6570 177.581 TC 37 -30.7456 177.512 1 38 9 188
1956316S12157 1957 108 SP MM NOT_NAMED 1956-11-17 05:00:00 TS -30.9682 177.583 main 566 557 P________PO___ SH051957 -30.9523 177.625 39 0 -30.9523 177.625 TC 39 -31.0000 177.500 2 40 9 168
1956316S12157 1957 108 SP MM NOT_NAMED 1956-11-17 06:00:00 TS -31.1222 177.666 main 563 542 O________OP___ jtwc_sh SH051957 -31.1000 177.700 40 0 -31.1000 177.700 TC 40 -31.1666 177.599 2 39 12 144
1956316S12157 1957 108 SP MM NOT_NAMED 1956-11-17 09:00:00 TS -31.6031 178.116 main 542 537 P________PP___ SH051957 -31.5801 178.144 37 0 -31.5801 178.144 TC 37 -31.6492 178.061 2 36 13 134
1956316S12157 1957 108 SP MM NOT_NAMED 1956-11-17 12:00:00 TS -32.0229 178.770 main 555 547 O________OP___ jtwc_sh SH051957 -32.0000 178.800 35 0 -32.0000 178.800 TC 35 -32.0686 178.711 2 34 14 123
1956316S12157 1957 108 SP MM NOT_NAMED 1956-11-17 15:00:00 TS -32.3475 179.470 main 583 576 P________PP___ SH051957 -32.3323 179.470 32 -1 -32.3323 179.470 TC 32 -32.3778 179.471 2 31 13 114
1956316S12157 1957 108 SP MM NOT_NAMED 1956-11-17 17:00:00 TS -32.4780 179.969 main 588 588 P________PO___ SH051957 -32.4670 179.953 30 -1 -32.4670 179.953 TC 30 -32.5000 180.000 1 30 13 104
1956316S12157 1957 108 SP MM NOT_NAMED 1956-11-17 18:00:00 TS -32.5064 180.212 main 593 593 O________OP___ jtwc_sh SH051957 -32.5000 -179.800 30 -1 -32.5000 180.200 TC 30 -32.5191 -179.765 1 30 12 89
1956316S12157 1957 108 SP MM NOT_NAMED 1956-11-17 21:00:00 TS -32.4610 180.951 main 618 618 P________PP___ SH051957 -32.4597 -179.057 30 -1 -32.4597 -179.057 TC 30 -32.4637 -179.032 1 30 13 81
1956316S12157 1957 108 SP MM NOT_NAMED 1956-11-18 00:00:00 TS -32.3001 181.708 main 664 664 O________OP___ jtwc_sh SH051957 -32.3000 -178.300 30 -1 -32.3000 181.700 TC 30 -32.3002 -178.276 1 30 13 75
1956316S12157 1957 108 SP MM NOT_NAMED 1956-11-18 03:00:00 TS -32.1253 182.464 main 717 717 P________PP___ SH051957 -32.1346 -177.550 30 -1 -32.1346 -177.550 TC 30 -32.1068 -177.509 1 30 13 75
1956316S12157 1957 108 SP MM NOT_NAMED 1956-11-18 05:00:00 TS -32.0235 182.967 main 750 750 P________PO___ SH051957 -32.0353 -177.050 30 -1 -32.0353 -177.050 TC 30 -32.0000 -177.000 1 30 13 78
1956316S12157 1957 108 SP MM NOT_NAMED 1956-11-18 06:00:00 TS -31.9846 183.221 main 760 760 O________OP___ jtwc_sh SH051957 -32.0000 -176.800 30 -1 -32.0000 183.200 TC 30 -31.9614 -176.747 1 28 13 84
1956316S12157 1957 108 SP MM NOT_NAMED 1956-11-18 09:00:00 TS -31.9358 183.978 main 812 812 P________PP___ SH051957 -31.9684 -176.051 25 -1 -31.9684 -176.051 TC 25 -31.9033 -175.993 1 23 13 88
1956316S12157 1957 108 SP MM NOT_NAMED 1956-11-18 12:00:00 TS -31.9468 184.734 main 852 852 O________OP___ jtwc_sh SH051957 -32.0000 -175.300 20 -1 -32.0000 184.700 TC 20 -31.9113 -175.244 1 18 13 91
1956316S12157 1957 108 SP MM NOT_NAMED 1956-11-18 15:00:00 NR -31.9591 185.502 main 892 892 __________P___ SH051957 -1 TC -31.9591 -174.498 1 13 13 93
1956316S12157 1957 108 SP MM NOT_NAMED 1956-11-18 17:00:00 NR -32.0000 186.000 main 925 __________O___ SH051957 -1 TC -32.0000 -174.000 1 10 13 96

デジタル台風データ・検索

IBTrACS Databaseについて

本データベースは、米国NOAAが公開する1842年以降の世界の熱帯低気圧のベストトラックデータアーカイブInternational Best Track Archive for Climate Stewardship (IBTrACS)を、ウェブで閲覧しやすい形式に変換したものです。

最終更新日:2021-10-21